M I D A S
Marine Information and Data Acquisition System
Tripno 250 of the Zeeleeuw from 2002-04-25 07:43:40 to 2002-04-25 11:15:19
Back to CruiseResearch ActivitiesStationsMapUnderway DataData graphs

EquipmentUnitsComment
TimeDGPSUTC
LatitudeDGPSDM.mWGS84
LongitudeDGPSDM.mWGS84
HeadingGyrodeg 
SOGDGPSknotsSpeed over ground
COGDGPSdegCourse over ground
DepthEcho soundermeters200 kHz
Missing or incorrect values are displayed as -999
Navigation data collected by the RV Zeeleeuw from 2002-04-25 07:43:40 to 2002-04-25 11:15:19
Time Latitude Longitude Heading SOG COG Depth
2002-04-25 07:44:46 51°13.692 2°55.862 97.7 2.7 279.2 -999
2002-04-25 07:45:46 51°13.697 2°55.782 84.7 2.9 270.3 11.7
2002-04-25 07:46:45 51°13.69 2°55.722 68 1.6 254.5 12.1
2002-04-25 07:47:45 51°13.737 2°55.722 337 4 337.4 10.1
2002-04-25 07:48:45 51°13.795 2°55.654 322.7 4.7 320.4 10.1
2002-04-25 07:49:46 51°13.859 2°55.602 340.2 3.9 337.6 9.6
2002-04-25 07:50:45 51°13.915 2°55.576 349.7 3.4 346.3 10.1
2002-04-25 07:51:45 51°13.975 2°55.545 340.5 3.2 340.4 10.3
2002-04-25 07:52:45 51°14.022 2°55.516 335.5 3.6 335.8 10.7
2002-04-25 07:53:46 51°14.087 2°55.466 334.2 4.6 332.9 10.9
2002-04-25 07:54:45 51°14.153 2°55.413 333.8 4.4 332.8 10.9
2002-04-25 07:55:45 51°14.213 2°55.348 320.2 4.3 320.1 9.6
2002-04-25 07:56:46 51°14.269 2°55.272 315.2 4.4 316.3 11.3
2002-04-25 07:57:45 51°14.324 2°55.167 311.3 6.1 309.3 9.9
2002-04-25 07:58:45 51°14.397 2°55.029 315.2 7.7 313.7 9.7
2002-04-25 07:59:45 51°14.514 2°54.858 319.5 10.4 316.4 9.4
2002-04-25 08:00:45 51°14.65 2°54.68 329.7 10.6 326.3 9.5
2002-04-25 08:01:45 51°14.813 2°54.665 16 10.3 12.2 9.4
2002-04-25 08:02:45 51°14.985 2°54.719 16.5 10.6 13.4 8.7
2002-04-25 08:03:45 51°15.156 2°54.783 18.3 10.5 14.6 8.1
2002-04-25 08:04:45 51°15.324 2°54.858 22.2 10.5 18.8 8.4
2002-04-25 08:05:45 51°15.484 2°54.973 40.7 10.5 37.4 8.9
2002-04-25 08:06:45 51°15.617 2°55.157 44.3 10.6 42.9 9
2002-04-25 08:07:45 51°15.748 2°55.341 46.3 10.4 44.5 8.9
2002-04-25 08:08:45 51°15.88 2°55.523 44 10.5 41.7 9.4
2002-04-25 08:09:45 51°16.001 2°55.724 48.5 10.6 46.8 9.5
2002-04-25 08:10:45 51°16.131 2°55.913 48.2 10.6 46.5 9.7
2002-04-25 08:11:45 51°16.271 2°56.137 51.2 12.7 48.9 10
2002-04-25 08:12:45 51°16.381 2°56.438 63.7 13.3 61.5 9.8
2002-04-25 08:13:45 51°16.454 2°56.717 67.5 8.8 65.4 10
2002-04-25 08:14:45 51°16.49 2°56.856 53 4.1 54.9 10
2002-04-25 08:15:45 51°16.526 2°56.914 34.2 2.6 38.3 10
2002-04-25 08:16:45 51°16.586 2°56.968 37.7 6.8 35.9 9.9
2002-04-25 08:17:45 51°16.713 2°57.182 53 12.6 51.3 9.8
2002-04-25 08:18:45 51°16.866 2°57.421 45.5 13.1 42.6 9.2
2002-04-25 08:19:45 51°16.984 2°57.714 57.2 13.3 54.7 9
2002-04-25 08:20:45 51°17.117 2°57.994 54.7 13.2 51.7 8.9
2002-04-25 08:21:45 51°17.22 2°58.303 62.5 13.4 60.8 8.8
2002-04-25 08:22:45 51°17.315 2°58.621 68.7 13.3 66.6 8.8
2002-04-25 08:23:45 51°17.41 2°58.94 69.7 13.3 67.8 8.6
2002-04-25 08:24:45 51°17.503 2°59.255 72.3 13 70.2 8.5
2002-04-25 08:25:45 51°17.596 2°59.571 63.8 13.2 62.3 8.3
2002-04-25 08:26:45 51°17.702 2°59.879 62 13.2 59.6 8.4
2002-04-25 08:27:45 51°17.793 3°0.202 69 13.4 66.9 8.4
2002-04-25 08:28:45 51°17.878 3°0.528 71.8 13.4 69.8 8.6
2002-04-25 08:29:45 51°17.958 3°0.858 72.5 13.4 70.6 8.3
2002-04-25 08:30:45 51°18.034 3°1.189 71.5 13.1 69.4 8.7
2002-04-25 08:31:45 51°18.111 3°1.453 60.3 8.9 59.7 9.4
2002-04-25 08:32:45 51°18.164 3°1.585 60.7 4.5 60.9 9.5
2002-04-25 08:33:45 51°18.186 3°1.675 71.8 3.2 73.5 9.3
2002-04-25 08:34:45 51°18.197 3°1.749 75.7 2.5 79 9.3
2002-04-25 08:35:45 51°18.199 3°1.781 76 1.1 88 9.2
2002-04-25 08:36:45 51°18.201 3°1.815 72.7 1.4 81 9.4
2002-04-25 08:37:45 51°18.206 3°1.853 65.7 1.5 76 9.6
2002-04-25 08:38:45 51°18.213 3°1.893 59.3 1.6 71.2 9.6
2002-04-25 08:39:45 51°18.223 3°1.933 52 1.6 69.1 9.5
2002-04-25 08:40:45 51°18.234 3°1.971 42.5 1.6 63.1 9.6
2002-04-25 08:41:45 51°18.248 3°2.005 31.8 1.5 53.9 9.6
2002-04-25 08:42:45 51°18.265 3°2.036 22.8 1.6 44.2 9.5
2002-04-25 08:43:45 51°18.288 3°2.067 22.3 2.1 38.6 9.1
2002-04-25 08:44:45 51°18.319 3°2.109 35.8 2.7 43.9 9.3
2002-04-25 08:45:45 51°18.35 3°2.167 52.5 2.8 57 9.6
2002-04-25 08:46:45 51°18.371 3°2.226 49.8 2.4 59.2 9.5
2002-04-25 08:47:45 51°18.392 3°2.276 41.5 2.1 55.5 9.3
2002-04-25 08:48:45 51°18.411 3°2.315 27.3 1.7 49.8 9.4
2002-04-25 08:49:45 51°18.428 3°2.346 17.2 1.5 48.7 9.1
2002-04-25 08:50:45 51°18.45 3°2.371 1 2.4 20.6 9.4
2002-04-25 08:51:45 51°18.537 3°2.389 6.5 8.5 7.4 9
2002-04-25 08:52:45 51°18.701 3°2.508 41.7 11.9 40 8.7
2002-04-25 08:53:45 51°18.875 3°2.662 25.3 12.2 24.4 8.4
2002-04-25 08:54:45 51°19.045 3°2.851 40.7 12.9 39 8.8
2002-04-25 08:55:45 51°19.214 3°3.073 33.7 13.1 33.7 8.4
2002-04-25 08:56:45 51°19.389 3°3.274 38.5 13.1 39.9 8.6
2002-04-25 08:57:45 51°19.556 3°3.475 37 10.9 37.2 8.7
2002-04-25 08:58:45 51°19.651 3°3.563 16.7 4.7 25.2 9.1
2002-04-25 08:59:45 51°19.702 3°3.605 10.7 2.4 32 9
2002-04-25 09:00:45 51°19.711 3°3.636 11.7 1.3 70 9
2002-04-25 09:01:45 51°19.718 3°3.667 1.5 1.2 73 9
2002-04-25 09:02:45 51°19.724 3°3.7 356 1.2 80.2 9.2
2002-04-25 09:03:45 51°19.728 3°3.734 354 1.4 77.3 9.2
2002-04-25 09:04:45 51°19.734 3°3.768 354.3 1.3 76.4 9.2
2002-04-25 09:05:45 51°19.738 3°3.803 354.5 1.4 79.9 9.1
2002-04-25 09:06:45 51°19.742 3°3.84 354 1.4 79.2 9.2
2002-04-25 09:07:45 51°19.747 3°3.877 355.3 1.5 74.5 8.6
2002-04-25 09:08:45 51°19.752 3°3.914 355.8 1.5 74.3 9.1
2002-04-25 09:09:45 51°19.759 3°3.951 1.5 1.5 71.4 8.7
2002-04-25 09:10:45 51°19.768 3°3.989 3.2 1.6 67.3 9
2002-04-25 09:11:45 51°19.778 3°4.028 4.3 1.6 67.6 8.4
2002-04-25 09:12:45 51°19.788 3°4.068 3.7 1.6 68.1 9.1
2002-04-25 09:13:44 51°19.852 3°4.092 353.8 7.6 0.2 9.1
2002-04-25 09:14:45 51°20.005 3°4.053 343.8 9.7 347.9 8.8
2002-04-25 09:15:45 51°20.173 3°4.034 359.5 10.4 2.5 8.4
2002-04-25 09:16:44 51°20.335 3°4.002 338.7 9.9 342.8 9.2
2002-04-25 09:17:44 51°20.484 3°3.898 326.5 9.5 330.4 9.6
2002-04-25 09:18:44 51°20.557 3°3.792 299.8 3.3 313.6 10.1
2002-04-25 09:19:45 51°20.591 3°3.778 329.5 2 13 10.3
2002-04-25 09:20:45 51°20.62 3°3.797 336.5 1.9 28.8 10.5
2002-04-25 09:21:45 51°20.648 3°3.825 343.7 2.1 32.7 10.4
2002-04-25 09:22:45 51°20.685 3°3.854 353 3 23.3 10.4
2002-04-25 09:23:45 51°20.74 3°3.895 9 4.1 28 10.7
2002-04-25 09:24:45 51°20.789 3°3.981 49 4.5 57.2 11.1
2002-04-25 09:25:45 51°20.817 3°4.081 65.3 3.9 70.8 11
2002-04-25 09:26:44 51°20.829 3°4.172 88.5 3.4 84 11.1
2002-04-25 09:27:45 51°20.83 3°4.255 113.3 2.9 93.7 11.1
2002-04-25 09:28:45 51°20.823 3°4.326 139 2.6 102.2 11
2002-04-25 09:29:45 51°20.811 3°4.389 161.3 2.4 108.1 10.8
2002-04-25 09:30:46 51°20.796 3°4.445 179.7 2.2 114 10.7
2002-04-25 09:31:45 51°20.78 3°4.488 197.2 1.8 125.1 10.9
2002-04-25 09:32:45 51°20.76 3°4.518 217.8 1.5 143.9 10.9
2002-04-25 09:33:45 51°20.742 3°4.527 244.8 1 191.3 10.9
2002-04-25 09:34:45 51°20.729 3°4.485 254.3 2.5 247.2 10.6
2002-04-25 09:35:45 51°20.706 3°4.438 249.2 2.1 232.9 10.5
2002-04-25 09:36:45 51°20.691 3°4.392 252.5 1.9 241.7 10.8
2002-04-25 09:37:45 51°20.666 3°4.352 237.7 2.2 214.5 10.7
2002-04-25 09:38:46 51°20.642 3°4.312 253.3 1.9 241.3 10.7
2002-04-25 09:39:45 51°20.638 3°4.265 268.5 1.9 273.9 10.6
2002-04-25 09:40:45 51°20.633 3°4.219 249.8 1.7 241.7 10.6
2002-04-25 09:41:45 51°20.612 3°4.181 246.3 1.9 228.8 10.6
2002-04-25 09:42:45 51°20.592 3°4.142 250 1.9 235.6 10.7
2002-04-25 09:43:45 51°20.574 3°4.1 249.2 1.9 234.1 10.4
2002-04-25 09:44:45 51°20.555 3°4.058 247.8 1.9 232.4 10.6
2002-04-25 09:45:45 51°20.541 3°4.013 260.5 1.8 257.7 10.4
2002-04-25 09:46:45 51°20.547 3°3.966 279.5 2 299.5 10.5
2002-04-25 09:47:45 51°20.572 3°3.943 299.8 1.8 353.7 10.8
2002-04-25 09:48:46 51°20.608 3°3.96 330 2.6 26.6 11
2002-04-25 09:49:45 51°20.665 3°3.993 354.2 4.9 18.4 10.8
2002-04-25 09:50:45 51°20.726 3°4.052 9.2 4.1 38.9 11.4
2002-04-25 09:51:45 51°20.771 3°4.119 10.2 3.5 45.9 11.6
2002-04-25 09:52:45 51°20.806 3°4.187 12 3.2 53 11.5
2002-04-25 09:53:45 51°20.835 3°4.255 14 3 56.8 11.8
2002-04-25 09:54:45 51°20.861 3°4.322 13 2.9 59.6 11.7
2002-04-25 09:55:45 51°20.905 3°4.448 83.3 7.7 77.9 11.8
2002-04-25 09:56:46 51°20.84 3°4.587 185.3 6.5 163.3 11.4
2002-04-25 09:57:45 51°20.73 3°4.542 227.5 8.4 217.7 11.3
2002-04-25 09:58:45 51°20.606 3°4.371 229.3 10.3 222.5 10.4
2002-04-25 09:59:45 51°20.473 3°4.18 227.8 10.9 220.8 10.2
2002-04-25 10:00:45 51°20.335 3°3.99 230.2 11 224.3 10.1
2002-04-25 10:01:45 51°20.202 3°3.784 228.3 11.2 223.3 9.9
2002-04-25 10:02:45 51°20.061 3°3.583 228.7 11.3 223.6 10
2002-04-25 10:03:45 51°19.925 3°3.375 228.8 11.2 223.6 10.1
2002-04-25 10:04:46 51°19.8 3°3.153 233.5 10.9 228.5 10.1
2002-04-25 10:05:45 51°19.679 3°2.941 233.2 11 227.8 10.4
2002-04-25 10:06:46 51°19.558 3°2.714 234.5 11.1 230 10.6
2002-04-25 10:07:46 51°19.416 3°2.524 216.8 11.4 209.7 10.6
2002-04-25 10:08:46 51°19.255 3°2.367 221.7 11.2 215.4 10.8
2002-04-25 10:09:45 51°19.107 3°2.192 222.2 11.3 216.3 10.7
2002-04-25 10:10:46 51°18.951 3°2.015 220.7 11.4 215.1 10.8
2002-04-25 10:11:46 51°18.796 3°1.841 220.8 11.4 215 10.9
2002-04-25 10:12:46 51°18.641 3°1.667 221.2 11.4 215.6 10.8
2002-04-25 10:13:46 51°18.488 3°1.491 220.8 11.3 215.6 10.9
2002-04-25 10:14:46 51°18.344 3°1.295 225.5 11.4 221.9 10.8
2002-04-25 10:15:46 51°18.201 3°1.095 224.8 11.5 221 10.7
2002-04-25 10:16:46 51°18.06 3°0.892 228.8 11.4 224.7 10.9
2002-04-25 10:17:46 51°17.933 3°0.669 231.8 11.3 228.1 11.3
2002-04-25 10:18:46 51°17.808 3°0.447 232.3 11.2 228.4 11.5
2002-04-25 10:19:46 51°17.686 3°0.223 234.8 11.2 231.4 11.8
2002-04-25 10:20:45 51°17.579 2°59.985 237.3 11.2 234.1 12.1
2002-04-25 10:21:46 51°17.467 2°59.742 236.8 11.2 233.5 12.2
2002-04-25 10:22:46 51°17.356 2°59.503 237 11.2 233.4 12.2
2002-04-25 10:23:45 51°17.245 2°59.268 237.2 11.2 233.3 12.3
2002-04-25 10:24:46 51°17.133 2°59.023 238.3 11.2 234.1 12.3
2002-04-25 10:25:45 51°17.027 2°58.779 238.8 11.4 235.8 12.3
2002-04-25 10:26:46 51°16.92 2°58.521 240.2 11.3 236.9 12.3
2002-04-25 10:27:45 51°16.819 2°58.274 239.7 11.4 236.7 12.3
2002-04-25 10:28:46 51°16.714 2°58.016 239.8 11.4 236.7 12.2
2002-04-25 10:29:46 51°16.61 2°57.76 240.2 11.5 237.4 12.3
2002-04-25 10:30:46 51°16.506 2°57.504 240 11.5 236.9 12.4
2002-04-25 10:31:46 51°16.403 2°57.247 239.8 11.4 236.9 12.3
2002-04-25 10:32:46 51°16.301 2°56.991 240 11.4 237.5 12.2
2002-04-25 10:33:46 51°16.2 2°56.734 240.2 11.5 238.3 12.3
2002-04-25 10:34:46 51°16.098 2°56.476 238.3 11.5 236.6 12.1
2002-04-25 10:35:46 51°15.989 2°56.224 236.8 11.5 235.2 12
2002-04-25 10:36:46 51°15.872 2°55.982 233.2 11.5 230.6 11.8
2002-04-25 10:37:46 51°15.751 2°55.747 233.8 11.5 231.2 11.8
2002-04-25 10:38:46 51°15.632 2°55.509 233.5 11.5 230.3 11.7
2002-04-25 10:39:46 51°15.508 2°55.274 232.8 11.5 230.4 11.5
2002-04-25 10:40:46 51°15.351 2°55.171 187.3 10.8 179 11.2
2002-04-25 10:41:46 51°15.177 2°55.113 200.5 10.7 192.7 11.3
2002-04-25 10:42:45 51°15.008 2°55.062 201.5 10.4 192.8 11.9
2002-04-25 10:43:46 51°14.832 2°55.025 192.2 10.6 184 12.1
2002-04-25 10:44:46 51°14.655 2°54.992 195 10.7 187.3 12.4
2002-04-25 10:45:46 51°14.48 2°54.977 177.8 10.8 169.1 12.8
2002-04-25 10:46:46 51°14.334 2°55.137 136.3 9.7 134.5 13.6
2002-04-25 10:47:46 51°14.246 2°55.299 142.2 7.1 138.6 13.6
2002-04-25 10:48:44 51°14.164 2°55.382 157.8 5.3 155.3 13.9
2002-04-25 10:49:45 51°14.089 2°55.44 156.2 4.7 153.3 13.9
2002-04-25 10:50:44 51°14.024 2°55.49 158.5 4.5 155.6 13.8
2002-04-25 10:51:45 51°13.953 2°55.54 158 4.6 155.4 13.3
2002-04-25 10:52:45 51°13.883 2°55.595 155.3 4.7 152.8 13.1
2002-04-25 10:53:45 51°13.819 2°55.645 151.5 3.9 150.5 13.6
2002-04-25 10:54:45 51°13.77 2°55.698 144.2 3.3 142.9 13.2
2002-04-25 10:55:45 51°13.735 2°55.751 133.8 2.8 132.2 13.4
2002-04-25 10:56:44 51°13.708 2°55.8 126.3 2.3 125.6 13.1
2002-04-25 10:57:46 51°13.695 2°55.85 105.8 1.9 104.1 12.5
2002-04-25 10:58:45 51°13.689 2°55.891 107.8 1.1 102.6 11
2002-04-25 10:59:44 51°13.686 2°55.903 122.7 0.3 131.7 11
2002-04-25 11:00:45 51°13.687 2°55.906 122.5   129.9 11
2002-04-25 11:01:46 51°13.687 2°55.906 130.8 0.1 201.2 11
2002-04-25 11:02:45 51°13.687 2°55.907 129.2   60.4 11
2002-04-25 11:03:46 51°13.688 2°55.906 129.2   140.4 11
2002-04-25 11:04:45 51°13.689 2°55.906 129   120.1 10.5
2002-04-25 11:05:45 51°13.689 2°55.906 129 0.1 138.9 10.3
2002-04-25 11:06:45 51°13.689 2°55.905 128.8 0.1 143.9 10.7
2002-04-25 11:07:45 51°13.689 2°55.904 129.2   134.8 10.6
2002-04-25 11:08:45 51°13.689 2°55.904 129   126.1 10.9
2002-04-25 11:09:45 51°13.689 2°55.905 129   125.1 10.8
2002-04-25 11:10:45 51°13.689 2°55.905 129.2 0.1 141.2 10.6
2002-04-25 11:11:45 51°13.689 2°55.905 129.2   163 11
2002-04-25 11:12:46 51°13.689 2°55.905 129.2   150 11
2002-04-25 11:13:45 51°13.689 2°55.905 129.3   292.7 10.6
2002-04-25 11:14:45 51°13.689 2°55.906 128.8   119.6 10.5